createdAt,value
2018-11-02T00:00:22.549Z,100213.41
2018-11-02T00:02:50.836Z,100212.16
2018-11-02T00:05:19.296Z,100213.06
2018-11-02T00:07:47.669Z,100210.42
2018-11-02T00:10:16.313Z,100204.11
2018-11-02T00:12:44.827Z,100198.17
2018-11-02T00:15:13.441Z,100201.94
2018-11-02T00:17:41.787Z,100207.91
2018-11-02T00:20:10.162Z,100215.05
2018-11-02T00:22:38.504Z,100214.91
2018-11-02T00:25:06.920Z,100217.09
2018-11-02T00:27:36.155Z,100211.15
2018-11-02T00:30:04.705Z,100212.80
2018-11-02T00:32:33.225Z,100230.11
2018-11-02T00:35:01.671Z,100229.76
2018-11-02T00:37:30.043Z,100222.48
2018-11-02T00:39:58.470Z,100223.81
2018-11-02T00:42:26.873Z,100219.16
2018-11-02T00:44:55.227Z,100219.11
2018-11-02T00:47:23.598Z,100244.63
2018-11-02T00:49:52.243Z,100264.62
2018-11-02T00:52:20.751Z,100261.67
2018-11-02T00:54:49.514Z,100270.17
2018-11-02T00:57:17.893Z,100274.82
2018-11-02T00:59:46.566Z,100264.23
2018-11-02T01:02:14.959Z,100263.04
2018-11-02T01:04:43.358Z,100261.69
2018-11-02T01:07:11.968Z,100275.35
2018-11-02T01:09:40.334Z,100271.91
2018-11-02T01:12:08.981Z,100265.95
2018-11-02T01:14:37.469Z,100271.11
2018-11-02T01:17:06.360Z,100272.95
2018-11-02T01:19:35.251Z,100278.01
2018-11-02T01:22:05.036Z,100286.92
2018-11-02T01:24:33.645Z,100282.60
2018-11-02T01:27:02.061Z,100292.81
2018-11-02T01:29:31.054Z,100297.39
2018-11-02T01:31:59.477Z,100299.56
2018-11-02T01:34:27.890Z,100312.16
2018-11-02T01:36:57.622Z,100303.67
2018-11-02T01:39:26.019Z,100306.59
2018-11-02T01:41:54.430Z,100313.79
2018-11-02T01:44:23.604Z,100303.08
2018-11-02T01:46:52.841Z,100304.31
2018-11-02T01:49:21.573Z,100296.73
2018-11-02T01:51:49.973Z,100301.03
2018-11-02T01:54:18.382Z,100300.22
2018-11-02T01:56:47.537Z,100300.60
2018-11-02T01:59:17.420Z,100313.42
2018-11-02T02:01:46.110Z,100304.02
2018-11-02T02:04:14.485Z,100307.28
2018-11-02T02:06:42.969Z,100307.70
2018-11-02T02:09:12.378Z,100314.99
2018-11-02T02:11:40.999Z,100306.41
2018-11-02T02:14:09.579Z,100307.64
2018-11-02T02:16:38.319Z,100302.59
2018-11-02T02:19:07.804Z,100300.49
2018-11-02T02:21:37.309Z,100305.08
2018-11-02T02:24:05.858Z,100302.14
2018-11-02T02:26:34.235Z,100309.74
2018-11-02T02:29:02.790Z,100305.06
2018-11-02T02:31:31.343Z,100309.72
2018-11-02T02:33:59.753Z,100313.09
2018-11-02T02:36:28.991Z,100305.78
2018-11-02T02:38:58.259Z,100299.79
2018-11-02T02:41:27.194Z,100311.23
2018-11-02T02:43:55.591Z,100312.45
2018-11-02T02:46:24.104Z,100306.08
2018-11-02T02:48:52.767Z,100298.88
2018-11-02T02:51:21.149Z,100301.82
2018-11-02T02:53:49.519Z,100308.66
2018-11-02T02:56:18.761Z,100310.73
2018-11-02T02:58:47.177Z,100311.23
2018-11-02T03:01:15.553Z,100311.09
2018-11-02T03:03:43.919Z,100320.95
2018-11-02T03:06:13.872Z,100336.31
2018-11-02T03:08:42.279Z,100331.20
2018-11-02T03:11:11.172Z,100340.95
2018-11-02T03:13:39.320Z,100341.45
2018-11-02T03:16:07.994Z,100343.18
2018-11-02T03:18:36.449Z,100351.95
2018-11-02T03:21:05.140Z,100355.02
2018-11-02T03:23:34.239Z,100356.20
2018-11-02T03:26:02.882Z,100356.16
2018-11-02T03:28:31.350Z,100369.02
2018-11-02T03:30:59.813Z,100375.41
2018-11-02T03:33:28.190Z,100374.09
2018-11-02T03:35:56.606Z,100377.66
2018-11-02T03:38:25.023Z,100373.83
2018-11-02T03:40:53.705Z,100383.97
2018-11-02T03:43:22.115Z,100389.17
2018-11-02T03:45:50.483Z,100402.84
2018-11-02T03:48:18.869Z,100405.35
2018-11-02T03:50:47.438Z,100407.59
2018-11-02T03:53:16.635Z,100410.58
2018-11-02T03:55:45.078Z,100414.45
2018-11-02T03:58:13.514Z,100416.85
2018-11-02T04:00:41.856Z,100424.51
2018-11-02T04:03:10.257Z,100425.72
2018-11-02T04:05:38.666Z,100431.86
2018-11-02T04:08:07.766Z,100432.39
2018-11-02T04:10:36.185Z,100436.20
2018-11-02T04:13:04.838Z,100433.13
2018-11-02T04:15:33.671Z,100435.66
2018-11-02T04:18:02.076Z,100429.28
2018-11-02T04:20:31.133Z,100434.80
2018-11-02T04:22:59.624Z,100438.22
2018-11-02T04:25:28.456Z,100445.00
2018-11-02T04:27:56.969Z,100436.87
2018-11-02T04:30:25.750Z,100443.20
2018-11-02T04:32:54.505Z,100441.08
2018-11-02T04:35:23.304Z,100441.92
2018-11-02T04:37:51.734Z,100447.49
2018-11-02T04:40:20.169Z,100445.33
2018-11-02T04:42:48.550Z,100438.04
2018-11-02T04:45:21.106Z,100452.45
2018-11-02T04:47:49.567Z,100451.24
2018-11-02T04:50:18.002Z,100464.05
2018-11-02T04:52:46.381Z,100473.80
2018-11-02T04:55:14.928Z,100475.09
2018-11-02T04:57:43.304Z,100475.09
2018-11-02T05:00:11.771Z,100478.44
2018-11-02T05:02:40.563Z,100484.05
2018-11-02T05:05:09.232Z,100482.76
2018-11-02T05:07:37.721Z,100488.21
2018-11-02T05:10:08.559Z,100482.27
2018-11-02T05:12:37.102Z,100488.21
2018-11-02T05:15:06.104Z,100496.01
2018-11-02T05:17:34.617Z,100496.34
2018-11-02T05:20:03.849Z,100500.82
2018-11-02T05:22:32.333Z,100501.27
2018-11-02T05:25:01.468Z,100506.31
2018-11-02T05:27:29.968Z,100516.92
2018-11-02T05:29:58.403Z,100524.06
2018-11-02T05:32:26.831Z,100527.35
2018-11-02T05:34:55.231Z,100531.71
2018-11-02T05:37:23.726Z,100533.45
2018-11-02T05:39:52.337Z,100531.25
2018-11-02T05:42:20.806Z,100542.77
2018-11-02T05:44:49.601Z,100547.05
2018-11-02T05:47:18.097Z,100555.57
2018-11-02T05:49:47.098Z,100559.39
2018-11-02T05:52:15.553Z,100565.26
2018-11-02T05:54:44.231Z,100563.09
2018-11-02T05:57:12.864Z,100566.54
2018-11-02T05:59:41.523Z,100570.77
2018-11-02T06:02:10.253Z,100577.25
2018-11-02T06:04:38.609Z,100571.31
2018-11-02T06:07:07.220Z,100574.80
2018-11-02T06:09:35.772Z,100581.75
2018-11-02T06:12:04.313Z,100590.25
2018-11-02T06:14:33.360Z,100593.66
2018-11-02T06:17:02.023Z,100609.44
2018-11-02T06:19:30.393Z,100615.42
2018-11-02T06:21:58.756Z,100622.20
2018-11-02T06:24:27.319Z,100626.83
2018-11-02T06:26:55.844Z,100633.64
2018-11-02T06:29:24.292Z,100648.59
2018-11-02T06:31:52.651Z,100655.83
2018-11-02T06:34:21.157Z,100661.86
2018-11-02T06:36:49.579Z,100671.19
2018-11-02T06:39:18.051Z,100670.38
2018-11-02T06:41:46.564Z,100677.23
2018-11-02T06:44:15.020Z,100683.63
2018-11-02T06:46:43.505Z,100682.38
2018-11-02T06:49:12.090Z,100680.27
2018-11-02T06:51:40.481Z,100681.96
2018-11-02T06:54:08.912Z,100677.23
2018-11-02T06:56:37.344Z,100672.58
2018-11-02T06:59:05.977Z,100672.11
2018-11-02T07:01:34.554Z,100670.02
2018-11-02T07:04:03.075Z,100675.59
2018-11-02T07:06:31.555Z,100679.05
2018-11-02T07:08:59.953Z,100678.66
2018-11-02T07:11:28.718Z,100684.25
2018-11-02T07:13:57.222Z,100686.30
2018-11-02T07:16:25.591Z,100687.55
2018-11-02T07:18:54.070Z,100690.85
2018-11-02T07:21:22.524Z,100698.45
2018-11-02T07:23:50.955Z,100703.05
2018-11-02T07:26:19.303Z,100706.75
2018-11-02T07:28:47.715Z,100703.27
2018-11-02T07:31:16.192Z,100700.27
2018-11-02T07:33:44.676Z,100707.30
2018-11-02T07:36:13.119Z,100707.78
2018-11-02T07:38:41.605Z,100705.69
2018-11-02T07:41:10.118Z,100715.21
2018-11-02T07:43:38.645Z,100725.98
2018-11-02T07:46:07.130Z,100727.47
2018-11-02T07:48:35.544Z,100738.14
2018-11-02T07:51:04.018Z,100743.83
2018-11-02T07:53:32.449Z,100737.91
2018-11-02T07:56:00.887Z,100732.58
2018-11-02T07:58:29.356Z,100746.89
2018-11-02T08:00:57.869Z,100748.63
2018-11-02T08:03:26.389Z,100753.14
2018-11-02T08:05:54.922Z,100760.27
2018-11-02T08:08:23.368Z,100770.52
2018-11-02T08:10:51.897Z,100778.31
2018-11-02T08:13:20.388Z,100781.42
2018-11-02T08:15:48.824Z,100777.67
2018-11-02T08:18:17.670Z,100782.27
2018-11-02T08:20:46.090Z,100793.37
2018-11-02T08:23:14.529Z,100796.63
2018-11-02T08:25:42.959Z,100819.11
2018-11-02T08:28:11.447Z,100821.30
2018-11-02T08:30:39.879Z,100832.84
2018-11-02T08:33:08.327Z,100838.62
2018-11-02T08:35:36.694Z,100834.56
2018-11-02T08:38:05.101Z,100839.62
2018-11-02T08:40:33.525Z,100836.41
2018-11-02T08:43:02.305Z,100845.75
2018-11-02T08:45:30.753Z,100842.52
2018-11-02T08:47:59.270Z,100844.73
2018-11-02T08:50:27.845Z,100847.68
2018-11-02T08:52:56.455Z,100841.44
2018-11-02T08:55:24.880Z,100850.56
2018-11-02T08:57:53.856Z,100850.58
2018-11-02T09:00:22.355Z,100857.83
2018-11-02T09:02:50.909Z,100856.38
2018-11-02T09:05:19.314Z,100859.80
2018-11-02T09:07:47.785Z,100866.39
2018-11-02T09:10:16.478Z,100875.27
2018-11-02T09:12:44.903Z,100874.86
2018-11-02T09:15:13.326Z,100893.86
2018-11-02T09:17:41.841Z,100890.11
2018-11-02T09:20:10.672Z,100891.02
2018-11-02T09:22:39.559Z,100896.85
2018-11-02T09:25:08.896Z,100897.52
2018-11-02T09:27:37.433Z,100899.03
2018-11-02T09:30:10.722Z,100900.16
2018-11-02T09:32:39.148Z,100910.27
2018-11-02T09:35:07.577Z,100913.72
2018-11-02T09:37:36.322Z,100925.03
2018-11-02T09:40:06.808Z,100924.88
2018-11-02T09:42:35.712Z,100934.53
2018-11-02T09:45:04.959Z,100935.97
2018-11-02T09:47:33.337Z,100946.39
2018-11-02T09:50:02.081Z,100944.77
2018-11-02T09:52:30.490Z,100948.25
2018-11-02T09:54:58.869Z,100952.19
2018-11-02T09:57:27.367Z,100954.67
2018-11-02T09:59:55.793Z,100968.16
2018-11-02T10:02:24.289Z,100962.09
2018-11-02T10:04:52.788Z,100976.13
2018-11-02T10:07:21.243Z,100983.44
2018-11-02T10:09:49.890Z,100985.96
2018-11-02T10:12:18.306Z,100988.97
2018-11-02T10:14:46.686Z,100986.83
2018-11-02T10:17:15.344Z,100990.86
2018-11-02T10:19:43.806Z,100990.50
2018-11-02T10:22:12.296Z,100998.17
2018-11-02T10:24:40.802Z,100999.03
2018-11-02T10:27:09.753Z,100996.94
2018-11-02T10:29:38.235Z,100999.09
2018-11-02T10:32:06.683Z,101004.72
2018-11-02T10:34:35.100Z,101000.47
2018-11-02T10:37:03.892Z,101006.98
2018-11-02T10:39:33.434Z,101007.80
2018-11-02T10:42:03.372Z,101013.78
2018-11-02T10:44:33.817Z,101023.66
2018-11-02T10:47:02.648Z,101029.24
2018-11-02T10:49:31.219Z,101035.18
2018-11-02T10:51:59.558Z,101024.03
2018-11-02T10:54:28.134Z,101020.47
2018-11-02T10:56:56.561Z,101037.45
2018-11-02T10:59:24.993Z,101027.53
2018-11-02T11:01:59.174Z,101026.64
2018-11-02T11:04:27.641Z,101033.00
2018-11-02T11:06:56.125Z,101040.25
2018-11-02T11:09:24.606Z,101035.11
2018-11-02T11:11:53.048Z,101031.33
2018-11-02T11:14:21.481Z,101034.73
2018-11-02T11:16:49.947Z,101034.28
2018-11-02T11:19:18.358Z,101040.59
2018-11-02T11:21:46.822Z,101034.99
2018-11-02T11:24:15.282Z,101038.92
2018-11-02T11:26:43.867Z,101041.66
2018-11-02T11:29:12.269Z,101039.94
2018-11-02T11:31:41.643Z,101051.55
2018-11-02T11:34:10.771Z,101056.11
2018-11-02T11:36:39.487Z,101057.72
2018-11-02T11:39:11.190Z,101061.89
2018-11-02T11:41:39.721Z,101064.70
2018-11-02T11:44:08.261Z,101067.73
2018-11-02T11:46:37.577Z,101070.28
2018-11-02T11:49:07.443Z,101076.31
2018-11-02T11:51:35.859Z,101069.92
2018-11-02T11:54:04.432Z,101070.66
2018-11-02T11:56:33.053Z,101065.88
2018-11-02T11:59:01.791Z,101067.11
2018-11-02T12:01:30.310Z,101072.31
2018-11-02T12:03:58.763Z,101072.24
2018-11-02T12:06:27.167Z,101069.23
2018-11-02T12:08:55.908Z,101076.75
2018-11-02T12:11:24.347Z,101078.04
2018-11-02T12:13:53.281Z,101084.00
2018-11-02T12:16:21.725Z,101084.46
2018-11-02T12:18:50.137Z,101086.64
2018-11-02T12:21:18.544Z,101087.20
2018-11-02T12:23:47.051Z,101087.58
2018-11-02T12:26:15.647Z,101090.14
2018-11-02T12:28:44.160Z,101090.12
2018-11-02T12:31:12.481Z,101094.47
2018-11-02T12:33:41.259Z,101099.56
2018-11-02T12:36:09.683Z,101099.77
2018-11-02T12:38:38.057Z,101101.32
2018-11-02T12:41:06.456Z,101106.32
2018-11-02T12:43:34.904Z,101112.11
2018-11-02T12:46:04.447Z,101111.95
2018-11-02T12:48:34.425Z,101109.17
2018-11-02T12:51:09.945Z,101108.98
2018-11-02T12:53:38.693Z,101114.19
2018-11-02T12:56:07.197Z,101101.80
2018-11-02T12:58:35.581Z,101109.46
2018-11-02T13:01:04.365Z,101103.17
2018-11-02T13:03:32.761Z,101101.67
2018-11-02T13:06:01.282Z,101104.20
2018-11-02T13:08:29.761Z,101102.89
2018-11-02T13:10:58.403Z,101105.64
2018-11-02T13:13:26.723Z,101108.03
2018-11-02T13:15:55.149Z,101107.15
2018-11-02T13:18:25.401Z,101114.07
2018-11-02T13:20:53.901Z,101113.77
2018-11-02T13:23:22.368Z,101117.48
2018-11-02T13:25:50.921Z,101119.68
2018-11-02T13:28:19.357Z,101127.31
2018-11-02T13:30:48.266Z,101135.55
2018-11-02T13:33:21.224Z,101142.02
2018-11-02T13:35:54.246Z,101142.34
2018-11-02T13:38:23.254Z,101145.30
2018-11-02T13:40:52.381Z,101145.34
2018-11-02T13:43:21.270Z,101152.13
2018-11-02T13:45:50.599Z,101156.44
2018-11-02T13:48:19.363Z,101159.60
2018-11-02T13:50:52.818Z,101167.36
2018-11-02T13:53:21.286Z,101164.41
2018-11-02T13:55:51.264Z,101168.27
2018-11-02T13:58:24.118Z,101179.75
2018-11-02T14:00:55.014Z,101176.78
2018-11-02T14:03:25.000Z,101190.80
2018-11-02T14:05:57.705Z,101191.69
2018-11-02T14:08:26.763Z,101198.88
2018-11-02T14:10:55.602Z,101196.31
2018-11-02T14:13:23.983Z,101202.70
2018-11-02T14:15:52.373Z,101204.44
2018-11-02T14:18:21.637Z,101208.75
2018-11-02T14:20:50.107Z,101207.45
2018-11-02T14:23:18.586Z,101212.55
2018-11-02T14:25:46.935Z,101215.16
2018-11-02T14:28:15.476Z,101223.32
2018-11-02T14:30:43.965Z,101226.79
2018-11-02T14:33:12.362Z,101233.16
2018-11-02T14:35:40.695Z,101239.55
2018-11-02T14:38:09.109Z,101252.06
2018-11-02T14:40:37.882Z,101261.09
2018-11-02T14:43:06.278Z,101258.98
2018-11-02T14:45:34.819Z,101259.48
2018-11-02T14:48:03.262Z,101255.73
2018-11-02T14:50:32.416Z,101243.36
2018-11-02T14:53:00.779Z,101246.81
2018-11-02T14:55:29.203Z,101247.27
2018-11-02T14:57:58.234Z,101250.31
2018-11-02T15:00:26.629Z,101253.72
2018-11-02T15:02:55.068Z,101257.58
2018-11-02T15:05:23.841Z,101265.76
2018-11-02T15:07:54.002Z,101263.67
2018-11-02T15:10:22.454Z,101260.67
2018-11-02T15:12:51.142Z,101270.13
2018-11-02T15:15:19.793Z,101273.17
2018-11-02T15:17:48.247Z,101279.58
2018-11-02T15:20:16.729Z,101280.50
2018-11-02T15:22:45.164Z,101283.53
2018-11-02T15:25:13.883Z,101283.54
2018-11-02T15:27:42.889Z,101280.61
2018-11-02T15:30:13.111Z,101280.20
2018-11-02T15:32:42.143Z,101276.02
2018-11-02T15:35:11.391Z,101279.86
2018-11-02T15:37:39.937Z,101287.54
2018-11-02T15:40:09.613Z,101292.25
2018-11-02T15:42:37.998Z,101288.88
2018-11-02T15:45:08.285Z,101289.31
2018-11-02T15:47:36.829Z,101288.10
2018-11-02T15:50:06.003Z,101297.03
2018-11-02T15:52:35.581Z,101303.05
2018-11-02T15:55:03.951Z,101303.05
2018-11-02T15:57:33.530Z,101304.77
2018-11-02T16:00:01.937Z,101297.11
2018-11-02T16:02:30.890Z,101297.52
2018-11-02T16:04:59.320Z,101298.00
2018-11-02T16:07:27.759Z,101301.88
2018-11-02T16:09:56.171Z,101303.58
2018-11-02T16:12:24.555Z,101306.99
2018-11-02T16:14:53.947Z,101316.80
2018-11-02T16:17:23.500Z,101320.64
2018-11-02T16:19:52.002Z,101322.75
2018-11-02T16:22:20.426Z,101329.59
2018-11-02T16:24:48.827Z,101333.86
2018-11-02T16:27:17.469Z,101332.16
2018-11-02T16:29:45.954Z,101338.55
2018-11-02T16:32:14.406Z,101337.25
2018-11-02T16:34:43.201Z,101336.00
2018-11-02T16:37:12.183Z,101351.73
2018-11-02T16:39:40.594Z,101353.03
2018-11-02T16:42:09.249Z,101357.70
2018-11-02T16:44:38.105Z,101349.97
2018-11-02T16:47:06.515Z,101352.56
2018-11-02T16:49:35.081Z,101355.53
2018-11-02T16:52:04.222Z,101353.40
2018-11-02T16:54:32.966Z,101355.09
2018-11-02T16:57:01.508Z,101356.78
2018-11-02T16:59:29.992Z,101362.75
2018-11-02T17:01:58.460Z,101370.84
2018-11-02T17:04:26.842Z,101385.28
2018-11-02T17:06:55.366Z,101392.95
2018-11-02T17:09:23.910Z,101393.79
2018-11-02T17:11:52.277Z,101392.07
2018-11-02T17:14:20.634Z,101389.52
2018-11-02T17:16:49.081Z,101393.28
2018-11-02T17:19:17.429Z,101398.75
2018-11-02T17:21:45.891Z,101391.45
2018-11-02T17:24:15.066Z,101400.81
2018-11-02T17:26:44.024Z,101402.09
2018-11-02T17:29:12.399Z,101408.10
2018-11-02T17:31:40.836Z,101420.00
2018-11-02T17:34:09.238Z,101415.68
2018-11-02T17:36:37.711Z,101421.62
2018-11-02T17:39:08.578Z,101429.70
2018-11-02T17:41:37.321Z,101434.80
2018-11-02T17:44:06.783Z,101433.53
2018-11-02T17:46:35.190Z,101432.25
2018-11-02T17:49:03.603Z,101436.49
2018-11-02T17:51:32.821Z,101445.39
2018-11-02T17:54:01.271Z,101450.91
2018-11-02T17:56:29.701Z,101453.05
2018-11-02T17:58:58.087Z,101456.00
2018-11-02T18:01:26.508Z,101457.25
2018-11-02T18:03:54.897Z,101461.06
2018-11-02T18:06:23.320Z,101456.34
2018-11-02T18:08:52.676Z,101466.10
2018-11-02T18:11:21.002Z,101466.03
2018-11-02T18:13:49.378Z,101473.73
2018-11-02T18:16:17.790Z,101480.52
2018-11-02T18:18:46.192Z,101482.69
2018-11-02T18:21:15.249Z,101491.53
2018-11-02T18:23:43.698Z,101494.94
2018-11-02T18:26:12.089Z,101494.89
2018-11-02T18:28:40.526Z,101502.80
2018-11-02T18:31:08.893Z,101500.61
2018-11-02T18:33:37.267Z,101505.63
2018-11-02T18:36:05.823Z,101505.51
2018-11-02T18:38:34.601Z,101515.63
2018-11-02T18:41:02.984Z,101511.73
2018-11-02T18:43:31.455Z,101506.21
2018-11-02T18:46:00.007Z,101513.03
2018-11-02T18:48:28.812Z,101518.91
2018-11-02T18:50:57.117Z,101526.92
2018-11-02T18:53:25.497Z,101521.43
2018-11-02T18:55:53.934Z,101532.50
2018-11-02T18:58:22.881Z,101534.14
2018-11-02T19:00:51.327Z,101535.79
2018-11-02T19:03:19.747Z,101537.06
2018-11-02T19:05:48.258Z,101541.73
2018-11-02T19:08:16.617Z,101549.19
2018-11-02T19:10:45.132Z,101548.95
2018-11-02T19:13:13.627Z,101550.41
2018-11-02T19:15:42.152Z,101549.66
2018-11-02T19:18:10.643Z,101543.58
2018-11-02T19:20:39.105Z,101547.70
2018-11-02T19:23:07.540Z,101550.34
2018-11-02T19:25:35.938Z,101549.98
2018-11-02T19:28:04.388Z,101549.95
2018-11-02T19:30:32.787Z,101555.17
2018-11-02T19:33:01.290Z,101552.66
2018-11-02T19:35:29.667Z,101550.56
2018-11-02T19:37:58.108Z,101552.48
2018-11-02T19:40:26.363Z,101564.92
2018-11-02T19:42:54.764Z,101573.52
2018-11-02T19:45:23.204Z,101588.89
2018-11-02T19:47:54.792Z,101597.80
2018-11-02T19:50:23.286Z,101596.48
2018-11-02T19:52:51.706Z,101601.55
2018-11-02T19:55:21.037Z,101606.10
2018-11-02T19:57:49.383Z,101610.65
2018-11-02T20:00:18.104Z,101615.81
2018-11-02T20:02:46.604Z,101620.83
2018-11-02T20:05:16.773Z,101624.30
2018-11-02T20:07:46.607Z,101628.92
2018-11-02T20:10:15.950Z,101629.00
2018-11-02T20:12:44.893Z,101624.67
2018-11-02T20:15:14.778Z,101632.35
2018-11-02T20:17:43.240Z,101633.97
2018-11-02T20:20:13.454Z,101638.63
2018-11-02T20:22:41.895Z,101644.66
2018-11-02T20:25:12.564Z,101654.02
2018-11-02T20:27:40.977Z,101661.69
2018-11-02T20:30:11.946Z,101663.84
2018-11-02T20:32:40.499Z,101674.80
2018-11-02T20:35:09.213Z,101669.28
2018-11-02T20:37:38.328Z,101671.79
2018-11-02T20:40:08.961Z,101674.75
2018-11-02T20:42:37.415Z,101668.52
2018-11-02T20:45:06.430Z,101673.68
2018-11-02T20:47:39.949Z,101674.22
2018-11-02T20:50:10.001Z,101673.84
2018-11-02T20:52:38.395Z,101673.02
2018-11-02T20:55:08.209Z,101673.91
2018-11-02T20:57:37.318Z,101672.59
2018-11-02T21:00:08.121Z,101678.88
2018-11-02T21:02:36.686Z,101685.33
2018-11-02T21:05:06.304Z,101691.53
2018-11-02T21:07:34.830Z,101693.31
2018-11-02T21:10:05.393Z,101699.25
2018-11-02T21:12:33.863Z,101700.09
2018-11-02T21:15:02.449Z,101697.23
2018-11-02T21:17:30.954Z,101698.94
2018-11-02T21:19:59.481Z,101702.21
2018-11-02T21:22:28.755Z,101703.88
2018-11-02T21:24:57.198Z,101707.73
2018-11-02T21:27:26.189Z,101705.64
2018-11-02T21:29:55.758Z,101715.14
2018-11-02T21:32:25.067Z,101712.28
2018-11-02T21:34:53.899Z,101716.17
2018-11-02T21:37:22.468Z,101715.33
2018-11-02T21:39:50.992Z,101719.19
2018-11-02T21:42:19.972Z,101713.21
2018-11-02T21:44:48.487Z,101707.34
2018-11-02T21:47:17.579Z,101703.98
2018-11-02T21:49:46.815Z,101705.72
2018-11-02T21:52:16.570Z,101704.94
2018-11-02T21:54:45.074Z,101698.08
2018-11-02T21:57:13.896Z,101701.91
2018-11-02T21:59:43.233Z,101703.25
2018-11-02T22:02:12.223Z,101715.23
2018-11-02T22:04:40.691Z,101726.73
2018-11-02T22:07:09.102Z,101732.67
2018-11-02T22:09:37.618Z,101732.72
2018-11-02T22:12:06.249Z,101725.84
2018-11-02T22:14:36.568Z,101732.22
2018-11-02T22:17:06.194Z,101742.09
2018-11-02T22:19:34.657Z,101741.28
2018-11-02T22:22:06.689Z,101745.56
2018-11-02T22:24:35.239Z,101746.87
2018-11-02T22:27:03.845Z,101744.32
2018-11-02T22:29:32.436Z,101736.68
2018-11-02T22:32:01.352Z,101737.11
2018-11-02T22:34:30.055Z,101740.35
2018-11-02T22:36:58.877Z,101737.66
2018-11-02T22:39:27.270Z,101737.23
2018-11-02T22:41:59.944Z,101729.59
2018-11-02T22:44:28.307Z,101726.62
2018-11-02T22:46:56.863Z,101731.30
2018-11-02T22:49:26.271Z,101727.44
2018-11-02T22:51:58.894Z,101726.09
2018-11-02T22:54:27.596Z,101715.52
2018-11-02T22:56:57.670Z,101710.00
2018-11-02T22:59:27.128Z,101717.67
2018-11-02T23:01:55.715Z,101727.02
2018-11-02T23:04:24.140Z,101724.50
2018-11-02T23:06:52.601Z,101710.88
2018-11-02T23:09:24.030Z,101707.45
2018-11-02T23:11:52.830Z,101711.77
2018-11-02T23:14:21.412Z,101710.92
2018-11-02T23:16:49.899Z,101714.47
2018-11-02T23:19:18.311Z,101712.34
2018-11-02T23:21:47.808Z,101711.95
2018-11-02T23:24:16.309Z,101717.47
2018-11-02T23:26:44.809Z,101723.45
2018-11-02T23:29:13.203Z,101721.68
2018-11-02T23:31:41.604Z,101732.75
2018-11-02T23:34:10.109Z,101733.10
2018-11-02T23:36:38.508Z,101720.05
2018-11-02T23:39:07.519Z,101720.83
2018-11-02T23:41:35.903Z,101718.78
2018-11-02T23:44:05.021Z,101725.25
2018-11-02T23:46:33.509Z,101729.11
2018-11-02T23:49:02.095Z,101725.33
2018-11-02T23:51:30.564Z,101717.26
2018-11-02T23:53:59.116Z,101717.26
2018-11-02T23:56:27.847Z,101722.42
2018-11-02T23:58:57.558Z,101729.61
